Time;durP1;ratioP1;P1;durP2;ratioP2;P2;SDS_P1;SDS_P2;PMS_P1;PMS_P2;Temp;Humidity;BMP_temperature;BMP_pressure;BME280_temperature;BME280_humidity;BME280_pressure;Samples;Min_cycle;Max_cycle;Signal;HPM_P1;HPM_P2
2023/06/18 00:00:13;;;;;;;5.55;5.15;;;;;;;;;;5031792;28;20379;-83
2023/06/18 00:02:39;;;;;;;5.68;5.18;;;;;;;;;;5031632;28;20379;-83
2023/06/18 00:05:05;;;;;;;5.82;4.93;;;;;;;;;;5031703;28;20525;-83
2023/06/18 00:07:31;;;;;;;6.45;5.10;;;;;;;;;;5031402;28;20395;-83
2023/06/18 00:09:57;;;;;;;5.53;5.13;;;;;;;;;;5031418;28;20397;-83
2023/06/18 00:12:23;;;;;;;5.55;5.10;;;;;;;;;;5031630;28;20398;-83
2023/06/18 00:14:49;;;;;;;5.63;5.13;;;;;;;;;;5031304;28;20912;-83
2023/06/18 00:17:15;;;;;;;5.20;4.80;;;;;;;;;;5031444;28;20390;-83
2023/06/18 00:19:41;;;;;;;5.50;5.00;;;;;;;;;;5031748;28;20455;-83
2023/06/18 00:22:07;;;;;;;4.90;4.50;;;;;;;;;;5031760;28;20387;-83
2023/06/18 00:24:33;;;;;;;5.03;4.63;;;;;;;;;;5042378;28;20420;-83
2023/06/18 00:26:59;;;;;;;5.50;5.10;;;;;;;;;;5033497;28;20383;-83
2023/06/18 00:29:26;;;;;;;5.20;4.80;;;;;;;;;;5046182;28;20409;-83
2023/06/18 00:31:52;;;;;;;5.57;5.10;;;;;;;;;;5045270;28;20374;-82
2023/06/18 00:34:18;;;;;;;5.80;5.30;;;;;;;;;;5032032;28;20410;-82
2023/06/18 00:36:50;;;;;;;5.60;5.20;;;;;;;;;;5031442;28;20370;-83
2023/06/18 00:39:16;;;;;;;5.63;5.22;;;;;;;;;;5030819;28;20386;-82
2023/06/18 00:41:46;;;;;;;5.05;4.65;;;;;;;;;;5029946;28;20387;-83
2023/06/18 00:44:12;;;;;;;5.35;4.95;;;;;;;;;;5031326;28;20792;-82
2023/06/18 00:46:40;;;;;;;5.88;5.47;;;;;;;;;;5031186;28;20387;-83
2023/06/18 00:49:08;;;;;;;6.03;5.47;;;;;;;;;;5030991;28;20387;-82
2023/06/18 00:51:34;;;;;;;5.88;5.38;;;;;;;;;;5031185;28;20383;-82
2023/06/18 00:54:01;;;;;;;5.20;4.80;;;;;;;;;;5031111;28;20383;-83
2023/06/18 00:56:29;;;;;;;5.97;5.50;;;;;;;;;;5034011;28;20780;-82
2023/06/18 00:58:57;;;;;;;5.55;5.00;;;;;;;;;;5034868;28;20406;-83
2023/06/18 01:01:24;;;;;;;6.07;5.40;;;;;;;;;;5033848;28;20413;-82
2023/06/18 01:03:50;;;;;;;5.82;5.43;;;;;;;;;;5033735;28;20929;-83
2023/06/18 01:06:17;;;;;;;5.85;5.35;;;;;;;;;;5034497;28;20942;-83
2023/06/18 01:08:48;;;;;;;6.53;5.45;;;;;;;;;;5034527;28;20407;-83
2023/06/18 01:11:14;;;;;;;5.78;5.28;;;;;;;;;;5034927;28;20390;-82
2023/06/18 01:13:42;;;;;;;6.03;5.50;;;;;;;;;;5034879;28;20391;-82
2023/06/18 01:16:08;;;;;;;5.55;5.15;;;;;;;;;;5034806;28;20410;-83
2023/06/18 01:18:39;;;;;;;5.72;5.32;;;;;;;;;;5034451;28;20478;-83
2023/06/18 01:21:07;;;;;;;6.20;5.80;;;;;;;;;;5034482;28;20383;-82
2023/06/18 01:23:49;;;;;;;6.00;5.50;;;;;;;;;;5034679;28;20496;-83
2023/06/18 01:26:20;;;;;;;6.40;5.90;;;;;;;;;;5034508;28;20462;-83
2023/06/18 01:28:46;;;;;;;6.55;6.03;;;;;;;;;;5034686;28;20462;-82
2023/06/18 01:31:12;;;;;;;5.90;5.40;;;;;;;;;;5034766;28;20927;-82
2023/06/18 01:33:39;;;;;;;6.27;5.77;;;;;;;;;;5039287;28;20385;-82
2023/06/18 01:36:07;;;;;;;6.30;5.70;;;;;;;;;;5040993;28;20406;-83
2023/06/18 01:38:37;;;;;;;5.97;5.57;;;;;;;;;;5049487;28;20388;-83
2023/06/18 01:41:10;;;;;;;6.15;5.65;;;;;;;;;;5035639;28;20418;-83
2023/06/18 01:43:52;;;;;;;5.93;5.43;;;;;;;;;;5014554;28;20469;-83
2023/06/18 01:46:23;;;;;;;5.78;5.32;;;;;;;;;;5014318;28;20385;-83
2023/06/18 01:48:55;;;;;;;5.63;5.13;;;;;;;;;;5029971;28;20446;-83
2023/06/18 01:51:22;;;;;;;6.30;5.80;;;;;;;;;;5034225;28;20784;-82
2023/06/18 01:53:50;;;;;;;6.25;5.75;;;;;;;;;;5034005;28;20878;-82
2023/06/18 01:56:17;;;;;;;7.00;6.40;;;;;;;;;;5033894;28;20505;-82
2023/06/18 01:58:44;;;;;;;6.10;5.60;;;;;;;;;;5033939;28;20718;-82
2023/06/18 02:01:11;;;;;;;6.20;5.30;;;;;;;;;;5034028;28;20919;-82
2023/06/18 02:03:37;;;;;;;6.10;5.70;;;;;;;;;;5033879;28;20383;-82
2023/06/18 02:06:03;;;;;;;6.03;5.53;;;;;;;;;;5033762;28;20741;-82
2023/06/18 02:08:29;;;;;;;6.43;5.82;;;;;;;;;;5033663;28;21014;-82
2023/06/18 02:10:55;;;;;;;6.25;5.65;;;;;;;;;;5033858;28;20391;-82
2023/06/18 02:13:21;;;;;;;6.10;5.60;;;;;;;;;;5033712;28;20383;-82
2023/06/18 02:15:47;;;;;;;5.97;5.53;;;;;;;;;;5033279;28;20907;-82
2023/06/18 02:18:13;;;;;;;5.93;5.43;;;;;;;;;;5033618;28;20382;-82
2023/06/18 02:20:40;;;;;;;5.68;5.28;;;;;;;;;;5033687;28;20387;-83
2023/06/18 02:23:06;;;;;;;5.73;5.33;;;;;;;;;;5033443;28;20841;-83
2023/06/18 02:25:32;;;;;;;5.88;5.38;;;;;;;;;;5033476;28;20410;-82
2023/06/18 02:27:58;;;;;;;5.70;5.30;;;;;;;;;;5033495;28;20426;-82
2023/06/18 02:30:31;;;;;;;5.93;5.40;;;;;;;;;;5033496;28;20994;-82
2023/06/18 02:32:58;;;;;;;5.95;5.45;;;;;;;;;;5033347;28;20390;-83
2023/06/18 02:35:24;;;;;;;6.05;5.55;;;;;;;;;;5035753;28;20398;-82
2023/06/18 02:37:50;;;;;;;5.53;5.13;;;;;;;;;;5042070;28;20390;-83
2023/06/18 02:40:16;;;;;;;5.85;5.45;;;;;;;;;;5052052;28;20381;-82
2023/06/18 02:42:48;;;;;;;5.83;5.37;;;;;;;;;;5047909;28;20383;-82
2023/06/18 02:45:17;;;;;;;5.57;5.17;;;;;;;;;;5033001;28;20920;-82
2023/06/18 02:47:47;;;;;;;5.78;5.38;;;;;;;;;;5033043;28;20390;-82
2023/06/18 02:50:13;;;;;;;6.10;5.60;;;;;;;;;;5032951;28;20424;-82
2023/06/18 02:52:40;;;;;;;5.70;5.30;;;;;;;;;;5033027;28;20383;-82
2023/06/18 02:55:07;;;;;;;6.32;5.72;;;;;;;;;;5032811;28;20410;-82
2023/06/18 02:57:33;;;;;;;6.63;6.13;;;;;;;;;;5032308;28;20379;-82
2023/06/18 02:59:59;;;;;;;6.43;5.93;;;;;;;;;;5032923;28;20419;-82
2023/06/18 03:02:26;;;;;;;6.28;5.78;;;;;;;;;;5032765;28;20410;-83
2023/06/18 03:04:52;;;;;;;5.55;5.15;;;;;;;;;;5032659;28;20440;-83
2023/06/18 03:07:18;;;;;;;6.15;5.65;;;;;;;;;;5032504;28;20462;-83
2023/06/18 03:09:44;;;;;;;5.90;5.40;;;;;;;;;;5032602;28;20383;-82
2023/06/18 03:12:11;;;;;;;6.18;5.78;;;;;;;;;;5031450;28;20865;-82
2023/06/18 03:14:37;;;;;;;6.40;5.80;;;;;;;;;;5032478;28;20928;-82
2023/06/18 03:17:03;;;;;;;5.95;5.55;;;;;;;;;;5032085;28;20809;-82
2023/06/18 03:19:29;;;;;;;6.47;5.70;;;;;;;;;;5031670;28;20569;-82
2023/06/18 03:21:55;;;;;;;6.10;5.60;;;;;;;;;;5032444;28;20458;-82
2023/06/18 03:24:22;;;;;;;6.60;5.90;;;;;;;;;;5032355;28;20872;-82
2023/06/18 03:26:48;;;;;;;5.88;5.47;;;;;;;;;;5032332;28;20426;-82
2023/06/18 03:29:14;;;;;;;6.38;5.88;;;;;;;;;;5032208;28;20379;-83
2023/06/18 03:31:40;;;;;;;6.13;5.70;;;;;;;;;;5032567;28;20379;-82
2023/06/18 03:34:07;;;;;;;5.85;5.45;;;;;;;;;;5032271;28;20375;-82
2023/06/18 03:36:39;;;;;;;6.03;5.53;;;;;;;;;;5035917;28;20382;-82
2023/06/18 03:39:06;;;;;;;6.22;5.75;;;;;;;;;;5043703;28;20379;-82
2023/06/18 03:41:32;;;;;;;6.05;5.55;;;;;;;;;;5031752;28;20864;-82
2023/06/18 03:43:58;;;;;;;5.90;5.40;;;;;;;;;;5045058;28;20377;-82
2023/06/18 03:46:24;;;;;;;6.07;5.57;;;;;;;;;;5033475;28;20437;-82
2023/06/18 03:48:50;;;;;;;5.80;5.40;;;;;;;;;;5031738;28;20383;-83
2023/06/18 03:51:16;;;;;;;6.35;5.75;;;;;;;;;;5031986;28;20387;-82
2023/06/18 03:53:42;;;;;;;6.38;5.80;;;;;;;;;;5031808;28;20415;-82
2023/06/18 03:56:08;;;;;;;6.13;5.53;;;;;;;;;;5031819;28;20453;-82
2023/06/18 03:58:34;;;;;;;5.82;5.43;;;;;;;;;;5031602;28;20861;-82
2023/06/18 04:01:01;;;;;;;6.15;5.75;;;;;;;;;;5031847;28;20799;-82
2023/06/18 04:03:27;;;;;;;6.10;5.70;;;;;;;;;;5031676;28;20732;-82
2023/06/18 04:05:53;;;;;;;5.70;5.20;;;;;;;;;;5031711;28;20375;-82
2023/06/18 04:08:20;;;;;;;6.50;6.00;;;;;;;;;;5031228;28;20418;-82
2023/06/18 04:10:47;;;;;;;6.00;5.50;;;;;;;;;;5031537;28;20387;-82
2023/06/18 04:13:19;;;;;;;5.93;5.40;;;;;;;;;;5031321;28;20387;-82
2023/06/18 04:15:45;;;;;;;6.18;5.68;;;;;;;;;;5031523;28;20419;-82
2023/06/18 04:18:11;;;;;;;6.38;5.78;;;;;;;;;;5031329;28;20471;-82
2023/06/18 04:20:37;;;;;;;6.32;5.85;;;;;;;;;;5031425;28;20478;-82
2023/06/18 04:23:03;;;;;;;6.20;5.70;;;;;;;;;;5031486;28;20382;-82
2023/06/18 04:25:30;;;;;;;6.10;5.60;;;;;;;;;;5031484;28;20379;-82
2023/06/18 04:27:56;;;;;;;6.43;5.93;;;;;;;;;;5031243;28;20426;-82
2023/06/18 04:30:22;;;;;;;6.10;5.60;;;;;;;;;;5030967;28;20379;-82
2023/06/18 04:32:48;;;;;;;6.20;5.70;;;;;;;;;;5031378;28;20383;-82
2023/06/18 04:35:14;;;;;;;5.82;5.43;;;;;;;;;;5031190;28;20409;-82
2023/06/18 04:37:40;;;;;;;6.32;5.78;;;;;;;;;;5030952;28;20749;-82
2023/06/18 04:40:06;;;;;;;6.17;5.70;;;;;;;;;;5031449;28;20386;-82
2023/06/18 04:42:32;;;;;;;6.05;5.63;;;;;;;;;;5031311;28;20398;-82
2023/06/18 04:44:58;;;;;;;6.00;5.50;;;;;;;;;;5042826;28;20393;-82
2023/06/18 04:47:24;;;;;;;6.60;6.10;;;;;;;;;;5042744;28;20386;-82
2023/06/18 04:49:50;;;;;;;6.33;5.83;;;;;;;;;;5035648;28;20451;-82
2023/06/18 04:52:16;;;;;;;6.68;6.20;;;;;;;;;;5042502;28;20394;-82
2023/06/18 04:54:42;;;;;;;6.28;5.88;;;;;;;;;;5032594;28;20457;-82
2023/06/18 04:57:11;;;;;;;6.13;5.63;;;;;;;;;;5050732;28;20854;-82
2023/06/18 04:59:39;;;;;;;6.25;5.75;;;;;;;;;;5050909;28;20377;-82
2023/06/18 05:02:05;;;;;;;6.43;5.93;;;;;;;;;;5050985;28;20863;-82
2023/06/18 05:04:31;;;;;;;6.10;5.60;;;;;;;;;;5050856;28;20389;-82
2023/06/18 05:06:57;;;;;;;6.20;5.63;;;;;;;;;;5050855;28;20388;-82
2023/06/18 05:09:23;;;;;;;6.07;5.68;;;;;;;;;;5050662;28;20412;-82
2023/06/18 05:11:49;;;;;;;6.20;5.60;;;;;;;;;;5050897;28;20413;-82
2023/06/18 05:14:15;;;;;;;6.32;5.93;;;;;;;;;;5030603;28;20398;-82
2023/06/18 05:16:41;;;;;;;6.03;5.63;;;;;;;;;;5030882;28;20383;-82
2023/06/18 05:19:07;;;;;;;6.13;5.72;;;;;;;;;;5030972;28;20737;-82
2023/06/18 05:21:33;;;;;;;5.90;5.50;;;;;;;;;;5030857;28;20379;-82
2023/06/18 05:23:59;;;;;;;6.57;6.00;;;;;;;;;;5030765;28;20852;-82
2023/06/18 05:26:26;;;;;;;6.40;5.80;;;;;;;;;;5029613;28;20469;-83
2023/06/18 05:28:52;;;;;;;6.47;5.97;;;;;;;;;;5030668;28;20745;-83
2023/06/18 05:31:18;;;;;;;6.23;5.83;;;;;;;;;;5030859;28;20379;-83
2023/06/18 05:33:44;;;;;;;6.53;5.97;;;;;;;;;;5030670;28;20422;-83
2023/06/18 05:36:12;;;;;;;6.05;5.55;;;;;;;;;;5030304;28;20463;-83
2023/06/18 05:38:38;;;;;;;6.45;5.85;;;;;;;;;;5030594;28;20426;-83
2023/06/18 05:41:04;;;;;;;6.20;5.70;;;;;;;;;;5031229;28;20375;-83
2023/06/18 05:43:30;;;;;;;5.93;5.35;;;;;;;;;;5034236;28;20474;-83
2023/06/18 05:45:57;;;;;;;6.72;5.85;;;;;;;;;;5034297;28;20714;-83
2023/06/18 05:48:23;;;;;;;6.03;5.63;;;;;;;;;;5038865;28;20874;-83
2023/06/18 05:50:49;;;;;;;6.00;5.60;;;;;;;;;;5042524;28;20453;-83
2023/06/18 05:53:15;;;;;;;6.40;5.90;;;;;;;;;;5038208;28;20389;-83
2023/06/18 05:55:41;;;;;;;6.43;5.85;;;;;;;;;;5047819;28;20410;-83
2023/06/18 05:58:07;;;;;;;6.33;5.83;;;;;;;;;;5034037;28;20437;-83
2023/06/18 06:00:33;;;;;;;6.18;5.65;;;;;;;;;;5034054;28;20390;-83
2023/06/18 06:02:59;;;;;;;6.63;6.03;;;;;;;;;;5034240;28;20429;-83
2023/06/18 06:05:25;;;;;;;5.50;5.10;;;;;;;;;;5034043;28;20386;-83
2023/06/18 06:07:51;;;;;;;5.50;5.07;;;;;;;;;;5033554;28;20752;-83
2023/06/18 06:10:21;;;;;;;5.97;5.57;;;;;;;;;;5033901;28;20392;-83
2023/06/18 06:12:47;;;;;;;5.80;5.30;;;;;;;;;;5033719;28;20418;-83
2023/06/18 06:15:13;;;;;;;6.13;5.65;;;;;;;;;;5033692;28;20410;-83
2023/06/18 06:17:39;;;;;;;5.60;5.13;;;;;;;;;;5033549;28;20379;-83
2023/06/18 06:20:06;;;;;;;5.85;5.45;;;;;;;;;;5033428;28;20391;-83
2023/06/18 06:22:32;;;;;;;5.82;5.43;;;;;;;;;;5033497;28;20379;-83
2023/06/18 06:24:58;;;;;;;5.67;5.17;;;;;;;;;;5033624;28;20397;-83
2023/06/18 06:27:24;;;;;;;5.82;5.32;;;;;;;;;;5033312;28;20717;-83
2023/06/18 06:29:50;;;;;;;5.97;5.47;;;;;;;;;;5033496;28;20395;-83
2023/06/18 06:32:17;;;;;;;5.57;5.07;;;;;;;;;;5033433;28;20445;-84
2023/06/18 06:34:43;;;;;;;6.07;5.60;;;;;;;;;;5033406;28;20838;-83
2023/06/18 06:37:09;;;;;;;5.87;5.47;;;;;;;;;;5032950;28;20383;-83
2023/06/18 06:39:35;;;;;;;8.13;7.47;;;;;;;;;;5033125;28;20383;-84
2023/06/18 06:42:02;;;;;;;6.13;5.53;;;;;;;;;;5033159;28;20426;-83
2023/06/18 06:44:28;;;;;;;6.23;5.73;;;;;;;;;;5032865;28;20387;-82
2023/06/18 06:46:54;;;;;;;6.32;5.82;;;;;;;;;;5033142;28;20392;-83
2023/06/18 06:49:20;;;;;;;5.90;5.50;;;;;;;;;;5033158;28;20386;-83
2023/06/18 06:51:46;;;;;;;6.15;5.55;;;;;;;;;;5033013;28;20380;-83
2023/06/18 06:54:12;;;;;;;7.28;6.57;;;;;;;;;;5036131;28;20872;-83
2023/06/18 06:56:37;;;;;;;6.18;5.57;;;;;;;;;;5050420;28;20389;-84
2023/06/18 06:59:03;;;;;;;6.13;5.68;;;;;;;;;;5037672;28;20382;-83
2023/06/18 07:01:30;;;;;;;7.15;6.05;;;;;;;;;;5039917;28;20478;-83
2023/06/18 07:03:56;;;;;;;6.57;6.07;;;;;;;;;;5037319;28;20395;-83
2023/06/18 07:06:22;;;;;;;6.18;5.57;;;;;;;;;;5032788;28;20753;-82
2023/06/18 07:08:48;;;;;;;6.60;6.00;;;;;;;;;;5032349;28;20422;-83
2023/06/18 07:11:14;;;;;;;7.13;6.45;;;;;;;;;;5032741;28;20486;-83
2023/06/18 07:13:40;;;;;;;6.20;5.70;;;;;;;;;;5032566;28;20569;-83
2023/06/18 07:16:06;;;;;;;5.90;5.50;;;;;;;;;;5032234;28;20421;-83
2023/06/18 07:18:32;;;;;;;6.53;6.00;;;;;;;;;;5032405;28;20379;-84
2023/06/18 07:20:58;;;;;;;6.40;5.90;;;;;;;;;;5032543;28;20383;-84
2023/06/18 07:23:24;;;;;;;7.00;6.45;;;;;;;;;;5032380;28;20458;-83
2023/06/18 07:25:50;;;;;;;7.60;6.90;;;;;;;;;;5032461;28;20470;-84
2023/06/18 07:28:16;;;;;;;6.72;6.13;;;;;;;;;;5032210;28;20418;-83
2023/06/18 07:30:42;;;;;;;6.72;6.18;;;;;;;;;;5032345;28;20878;-83
2023/06/18 07:33:08;;;;;;;6.32;5.93;;;;;;;;;;5032285;28;20470;-83
2023/06/18 07:35:34;;;;;;;6.35;5.93;;;;;;;;;;5032169;28;20897;-83
2023/06/18 07:38:00;;;;;;;7.00;6.40;;;;;;;;;;5032328;28;20403;-83
2023/06/18 07:40:28;;;;;;;6.37;5.87;;;;;;;;;;5032270;28;20465;-83
2023/06/18 07:42:54;;;;;;;6.13;5.72;;;;;;;;;;5032018;28;20383;-83
2023/06/18 07:45:20;;;;;;;6.40;5.90;;;;;;;;;;5032136;28;20464;-83
2023/06/18 07:47:46;;;;;;;7.32;6.60;;;;;;;;;;5031866;28;20391;-83
2023/06/18 07:50:13;;;;;;;7.50;6.07;;;;;;;;;;5032047;28;20871;-84
2023/06/18 07:52:39;;;;;;;6.40;5.90;;;;;;;;;;5031908;28;20383;-84
2023/06/18 07:55:05;;;;;;;6.03;5.57;;;;;;;;;;5032336;28;20424;-83
2023/06/18 07:57:31;;;;;;;6.40;5.90;;;;;;;;;;5034428;28;20383;-83
2023/06/18 07:59:57;;;;;;;6.47;5.97;;;;;;;;;;5050673;28;20430;-84
2023/06/18 08:02:23;;;;;;;6.90;6.18;;;;;;;;;;5040019;28;20783;-84
2023/06/18 08:04:49;;;;;;;7.20;6.50;;;;;;;;;;5031571;28;20386;-83
2023/06/18 08:07:15;;;;;;;6.67;6.07;;;;;;;;;;5031313;28;20387;-83
2023/06/18 08:09:41;;;;;;;6.30;5.80;;;;;;;;;;5031728;28;20478;-83
2023/06/18 08:12:08;;;;;;;6.38;5.88;;;;;;;;;;5031642;28;20391;-84
2023/06/18 08:14:34;;;;;;;6.20;5.65;;;;;;;;;;5031419;28;20470;-83
2023/06/18 08:17:00;;;;;;;6.75;6.15;;;;;;;;;;5031550;28;20390;-83
2023/06/18 08:19:26;;;;;;;6.53;5.90;;;;;;;;;;5031588;28;20744;-83
2023/06/18 08:21:52;;;;;;;6.18;5.68;;;;;;;;;;5031293;28;20394;-83
2023/06/18 08:24:18;;;;;;;6.63;5.90;;;;;;;;;;5031455;28;20367;-83
2023/06/18 08:26:44;;;;;;;6.30;5.70;;;;;;;;;;5031236;28;20430;-83
2023/06/18 08:29:11;;;;;;;6.28;5.72;;;;;;;;;;5031370;28;20387;-83
2023/06/18 08:31:41;;;;;;;6.40;5.80;;;;;;;;;;5031404;28;20792;-83
2023/06/18 08:34:07;;;;;;;5.83;5.30;;;;;;;;;;5031038;28;20730;-83
2023/06/18 08:36:33;;;;;;;6.10;5.70;;;;;;;;;;5031292;28;20410;-83
2023/06/18 08:38:59;;;;;;;5.90;5.40;;;;;;;;;;5031178;28;20737;-83
2023/06/18 08:41:27;;;;;;;5.82;5.22;;;;;;;;;;5031042;28;20386;-83
2023/06/18 08:43:53;;;;;;;6.00;5.50;;;;;;;;;;5031081;28;20744;-84
2023/06/18 08:46:20;;;;;;;6.20;5.70;;;;;;;;;;5031318;28;20907;-83
2023/06/18 08:48:52;;;;;;;5.73;5.27;;;;;;;;;;5031137;28;20383;-83
2023/06/18 08:51:19;;;;;;;5.82;5.43;;;;;;;;;;5031228;28;20402;-83
2023/06/18 08:53:46;;;;;;;6.05;5.50;;;;;;;;;;5031107;28;20394;-83
2023/06/18 08:56:14;;;;;;;6.10;5.50;;;;;;;;;;5031122;28;20489;-83
2023/06/18 08:58:46;;;;;;;6.60;6.00;;;;;;;;;;5035182;28;20387;-83
2023/06/18 09:01:12;;;;;;;6.72;6.03;;;;;;;;;;5041621;28;20419;-83
2023/06/18 09:03:39;;;;;;;6.00;5.55;;;;;;;;;;5039066;28;20387;-83
2023/06/18 09:06:05;;;;;;;7.93;6.22;;;;;;;;;;5036046;28;20393;-83
2023/06/18 09:08:31;;;;;;;6.80;6.10;;;;;;;;;;5036818;28;20414;-83
2023/06/18 09:10:58;;;;;;;6.57;5.97;;;;;;;;;;5031054;28;20470;-83
2023/06/18 09:13:24;;;;;;;6.82;6.30;;;;;;;;;;5030897;28;20465;-83
2023/06/18 09:15:51;;;;;;;7.00;6.40;;;;;;;;;;5031074;28;21003;-83
2023/06/18 09:18:17;;;;;;;7.47;6.57;;;;;;;;;;5034740;28;20474;-83
2023/06/18 09:20:43;;;;;;;7.93;7.22;;;;;;;;;;5034807;28;20433;-82
2023/06/18 09:23:10;;;;;;;9.32;8.52;;;;;;;;;;5034625;28;20912;-83
2023/06/18 09:25:36;;;;;;;9.03;8.23;;;;;;;;;;5034691;28;20862;-83
2023/06/18 09:28:03;;;;;;;9.43;8.52;;;;;;;;;;5034490;28;20923;-83
2023/06/18 09:30:29;;;;;;;8.45;7.65;;;;;;;;;;5034640;28;20383;-83
2023/06/18 09:32:59;;;;;;;7.97;7.28;;;;;;;;;;5034472;28;20387;-83
2023/06/18 09:35:26;;;;;;;7.93;7.18;;;;;;;;;;5034448;28;20505;-83
2023/06/18 09:37:52;;;;;;;7.47;6.88;;;;;;;;;;5034282;28;20401;-83
2023/06/18 09:40:20;;;;;;;7.28;6.57;;;;;;;;;;5034358;28;20375;-82
2023/06/18 09:42:46;;;;;;;7.38;6.13;;;;;;;;;;5034490;28;20390;-83
2023/06/18 09:45:14;;;;;;;7.30;5.60;;;;;;;;;;5034350;28;20379;-83
2023/06/18 09:47:47;;;;;;;5.70;5.20;;;;;;;;;;5033033;28;21044;-84
2023/06/18 09:50:13;;;;;;;5.90;5.40;;;;;;;;;;5032856;28;20395;-83
2023/06/18 09:52:44;;;;;;;5.65;5.25;;;;;;;;;;5034321;28;20391;-83
2023/06/18 09:55:26;;;;;;;5.82;5.32;;;;;;;;;;5034062;28;20411;-82
2023/06/18 09:57:52;;;;;;;5.25;4.75;;;;;;;;;;5031863;28;20376;-83
2023/06/18 10:00:18;;;;;;;5.40;5.00;;;;;;;;;;5034672;28;20426;-83
2023/06/18 10:02:44;;;;;;;5.78;5.38;;;;;;;;;;5046608;28;20378;-83
2023/06/18 10:05:10;;;;;;;5.40;5.00;;;;;;;;;;5040284;28;20385;-83
2023/06/18 10:07:39;;;;;;;4.75;4.45;;;;;;;;;;5042639;28;20418;-83
2023/06/18 10:10:08;;;;;;;5.20;4.80;;;;;;;;;;5043330;28;20389;-83
2023/06/18 10:12:34;;;;;;;4.75;4.35;;;;;;;;;;5033564;28;20437;-84
2023/06/18 10:15:01;;;;;;;5.20;4.63;;;;;;;;;;5033712;28;20498;-83
2023/06/18 10:17:29;;;;;;;5.13;4.72;;;;;;;;;;5033726;28;20460;-84
2023/06/18 10:20:03;;;;;;;5.07;4.65;;;;;;;;;;5033658;28;20379;-84
2023/06/18 10:22:31;;;;;;;5.10;4.70;;;;;;;;;;5033735;28;20375;-83
2023/06/18 10:25:07;;;;;;;5.30;4.72;;;;;;;;;;5033535;28;20440;-84
2023/06/18 10:27:34;;;;;;;5.25;4.85;;;;;;;;;;5033323;28;20379;-83
2023/06/18 10:30:00;;;;;;;5.33;4.83;;;;;;;;;;5033447;28;20394;-84
2023/06/18 10:32:27;;;;;;;5.47;4.97;;;;;;;;;;5033220;28;20375;-84
2023/06/18 10:34:55;;;;;;;5.35;4.40;;;;;;;;;;5033266;28;20403;-84
2023/06/18 10:37:21;;;;;;;4.90;4.40;;;;;;;;;;5033303;28;20764;-83
2023/06/18 10:39:48;;;;;;;4.47;4.13;;;;;;;;;;5033271;28;20367;-83
2023/06/18 10:42:15;;;;;;;4.85;4.38;;;;;;;;;;5033261;28;20466;-83
2023/06/18 10:44:47;;;;;;;4.77;4.37;;;;;;;;;;5033259;28;20387;-83
2023/06/18 10:47:21;;;;;;;4.78;4.35;;;;;;;;;;5033141;28;20390;-83
2023/06/18 10:50:03;;;;;;;5.13;4.60;;;;;;;;;;5032886;28;20395;-83
2023/06/18 10:52:30;;;;;;;4.63;4.30;;;;;;;;;;5032963;28;20895;-83
2023/06/18 10:55:06;;;;;;;4.78;4.47;;;;;;;;;;5032980;28;20403;-83
2023/06/18 10:57:36;;;;;;;5.20;4.80;;;;;;;;;;5032849;28;20428;-83
2023/06/18 11:00:12;;;;;;;4.82;4.43;;;;;;;;;;5032983;28;20386;-83
2023/06/18 11:02:39;;;;;;;4.70;4.28;;;;;;;;;;5031903;28;20387;-83
2023/06/18 11:05:05;;;;;;;5.22;4.65;;;;;;;;;;5046374;28;20824;-83
2023/06/18 11:07:32;;;;;;;4.80;4.50;;;;;;;;;;5039173;28;20410;-84
2023/06/18 11:09:59;;;;;;;5.07;4.68;;;;;;;;;;5043195;28;20385;-83
2023/06/18 11:12:26;;;;;;;5.38;4.97;;;;;;;;;;5039547;28;20957;-83
2023/06/18 11:15:11;;;;;;;4.97;4.55;;;;;;;;;;5032579;28;20452;-84
2023/06/18 11:17:38;;;;;;;4.50;4.18;;;;;;;;;;5032389;28;20528;-83
2023/06/18 11:20:05;;;;;;;5.90;5.40;;;;;;;;;;5032654;28;20395;-83
2023/06/18 11:22:31;;;;;;;5.47;5.00;;;;;;;;;;5032498;28;20386;-83
2023/06/18 11:25:00;;;;;;;5.05;4.65;;;;;;;;;;5032542;28;20375;-84
2023/06/18 11:27:27;;;;;;;5.15;4.63;;;;;;;;;;5032355;28;20425;-83
2023/06/18 11:29:56;;;;;;;4.80;4.47;;;;;;;;;;5032309;28;20375;-83
2023/06/18 11:32:23;;;;;;;5.05;4.65;;;;;;;;;;5032424;28;20383;-84
2023/06/18 11:34:50;;;;;;;7.15;5.30;;;;;;;;;;5032256;28;20411;-83
2023/06/18 11:37:16;;;;;;;5.53;4.97;;;;;;;;;;5032124;28;20787;-84
2023/06/18 11:39:42;;;;;;;4.90;4.60;;;;;;;;;;5031926;28;20740;-83
2023/06/18 11:42:12;;;;;;;5.32;4.93;;;;;;;;;;5032274;28;20808;-84
2023/06/18 11:44:51;;;;;;;5.00;4.60;;;;;;;;;;5032142;28;20379;-83
2023/06/18 11:47:17;;;;;;;4.60;4.20;;;;;;;;;;5032011;28;20390;-83
2023/06/18 11:49:47;;;;;;;4.35;4.05;;;;;;;;;;5032003;28;20383;-83
2023/06/18 11:52:14;;;;;;;4.95;4.57;;;;;;;;;;5031464;28;20463;-83
2023/06/18 11:54:41;;;;;;;4.95;4.55;;;;;;;;;;5031758;28;20394;-84
2023/06/18 11:57:07;;;;;;;4.70;4.30;;;;;;;;;;5031873;28;20380;-84
2023/06/18 11:59:35;;;;;;;4.70;4.30;;;;;;;;;;5031782;28;20379;-84
2023/06/18 12:02:11;;;;;;;5.05;4.65;;;;;;;;;;5031947;28;20379;-84
2023/06/18 12:04:37;;;;;;;4.70;4.40;;;;;;;;;;5039952;28;20380;-84
2023/06/18 12:07:03;;;;;;;5.30;4.90;;;;;;;;;;5045657;28;20889;-83
2023/06/18 12:09:33;;;;;;;4.80;4.45;;;;;;;;;;5036876;28;20852;-83
2023/06/18 12:12:08;;;;;;;6.60;4.57;;;;;;;;;;5050166;28;20389;-83
2023/06/18 12:14:54;;;;;;;5.18;4.70;;;;;;;;;;5040332;28;20881;-83
2023/06/18 12:17:28;;;;;;;5.07;4.78;;;;;;;;;;5051114;28;20457;-84
2023/06/18 12:19:59;;;;;;;5.25;4.72;;;;;;;;;;5051525;28;20382;-83
2023/06/18 12:22:26;;;;;;;5.03;4.60;;;;;;;;;;5049004;28;20468;-83
2023/06/18 12:24:52;;;;;;;5.22;4.82;;;;;;;;;;5031434;28;20418;-83
2023/06/18 12:27:18;;;;;;;5.53;5.10;;;;;;;;;;5031337;28;20390;-84
2023/06/18 12:29:45;;;;;;;5.03;4.53;;;;;;;;;;5031519;28;20387;-84
2023/06/18 12:32:12;;;;;;;5.20;4.80;;;;;;;;;;5031700;28;20410;-84
2023/06/18 12:34:40;;;;;;;4.78;4.47;;;;;;;;;;5031260;28;20753;-83
2023/06/18 12:37:08;;;;;;;4.80;4.40;;;;;;;;;;5031142;28;20378;-83
2023/06/18 12:39:35;;;;;;;4.90;4.57;;;;;;;;;;5031087;28;20387;-84
2023/06/18 12:42:01;;;;;;;4.88;4.55;;;;;;;;;;5031081;28;20386;-84
2023/06/18 12:44:28;;;;;;;4.63;4.23;;;;;;;;;;5031170;28;20425;-84
2023/06/18 12:46:56;;;;;;;4.57;4.25;;;;;;;;;;5031110;28;20379;-83
2023/06/18 12:49:22;;;;;;;4.35;3.95;;;;;;;;;;5031240;28;20378;-83
2023/06/18 12:51:49;;;;;;;4.53;4.22;;;;;;;;;;5032811;28;20381;-84
2023/06/18 12:54:17;;;;;;;5.07;4.78;;;;;;;;;;5034766;28;20378;-83
2023/06/18 12:56:48;;;;;;;5.15;4.20;;;;;;;;;;5034996;28;20409;-84
2023/06/18 12:59:17;;;;;;;4.78;4.38;;;;;;;;;;5035217;28;20461;-84
2023/06/18 13:01:44;;;;;;;4.90;4.60;;;;;;;;;;5035101;28;20439;-84
2023/06/18 13:04:10;;;;;;;4.70;4.40;;;;;;;;;;5035150;28;20391;-84
2023/06/18 13:06:36;;;;;;;5.28;4.78;;;;;;;;;;5048631;28;20390;-84
2023/06/18 13:09:04;;;;;;;4.50;4.20;;;;;;;;;;5039007;28;20406;-83
2023/06/18 13:11:31;;;;;;;4.80;4.40;;;;;;;;;;5050607;28;20882;-84
2023/06/18 13:13:57;;;;;;;4.38;3.97;;;;;;;;;;5039705;28;20381;-84
2023/06/18 13:16:23;;;;;;;4.27;3.97;;;;;;;;;;5039807;28;20426;-84
2023/06/18 13:18:49;;;;;;;4.70;3.90;;;;;;;;;;5034852;28;20510;-84
2023/06/18 13:21:15;;;;;;;4.50;4.20;;;;;;;;;;5034683;28;20383;-84
2023/06/18 13:23:41;;;;;;;4.00;3.70;;;;;;;;;;5034659;28;20453;-84
2023/06/18 13:26:08;;;;;;;4.10;3.80;;;;;;;;;;5034793;28;20422;-85
2023/06/18 13:28:34;;;;;;;5.28;4.78;;;;;;;;;;5034695;28;20387;-84
2023/06/18 13:31:00;;;;;;;5.30;4.90;;;;;;;;;;5034616;28;20409;-84
2023/06/18 13:33:26;;;;;;;5.07;4.50;;;;;;;;;;5034581;28;20399;-85
2023/06/18 13:35:52;;;;;;;4.47;4.18;;;;;;;;;;5034478;28;20814;-84
2023/06/18 13:38:18;;;;;;;4.23;3.90;;;;;;;;;;5034514;28;20375;-84
2023/06/18 13:40:44;;;;;;;4.30;4.00;;;;;;;;;;5034338;28;20375;-84
2023/06/18 13:43:14;;;;;;;4.40;4.00;;;;;;;;;;5034366;28;20406;-84
2023/06/18 13:45:40;;;;;;;6.15;4.22;;;;;;;;;;5034403;28;20868;-84
2023/06/18 13:48:06;;;;;;;4.15;3.85;;;;;;;;;;5033705;28;20387;-84
2023/06/18 13:50:33;;;;;;;4.37;4.07;;;;;;;;;;5034101;28;20375;-84
2023/06/18 13:52:59;;;;;;;4.30;4.00;;;;;;;;;;5034158;28;20411;-85
2023/06/18 13:55:25;;;;;;;5.20;3.60;;;;;;;;;;5034139;28;20450;-85
2023/06/18 13:57:51;;;;;;;4.22;3.83;;;;;;;;;;5033923;28;20411;-84
2023/06/18 14:00:18;;;;;;;5.00;4.00;;;;;;;;;;5034135;28;20387;-84
2023/06/18 14:02:44;;;;;;;4.00;3.80;;;;;;;;;;5032149;28;20947;-84
2023/06/18 14:05:10;;;;;;;4.38;4.07;;;;;;;;;;5034257;28;20760;-84
2023/06/18 14:07:37;;;;;;;4.78;4.38;;;;;;;;;;5034350;28;20474;-85
2023/06/18 14:10:03;;;;;;;4.73;4.13;;;;;;;;;;5039921;28;20424;-84
2023/06/18 14:12:30;;;;;;;4.30;4.00;;;;;;;;;;5036676;28;20750;-84
2023/06/18 14:14:56;;;;;;;4.95;3.83;;;;;;;;;;5049392;28;20921;-85
2023/06/18 14:17:23;;;;;;;4.32;4.03;;;;;;;;;;5046022;28;20393;-85
2023/06/18 14:19:49;;;;;;;4.45;4.15;;;;;;;;;;5053509;28;20512;-85
2023/06/18 14:22:15;;;;;;;5.00;4.32;;;;;;;;;;5053587;28;20464;-85
2023/06/18 14:24:41;;;;;;;4.10;3.70;;;;;;;;;;5053596;28;20473;-85
2023/06/18 14:27:08;;;;;;;4.28;3.90;;;;;;;;;;5053609;28;20385;-85
2023/06/18 14:29:34;;;;;;;4.20;3.90;;;;;;;;;;5053458;28;20447;-85
2023/06/18 14:32:00;;;;;;;4.47;4.17;;;;;;;;;;5053730;28;20846;-85
2023/06/18 14:34:26;;;;;;;4.45;4.13;;;;;;;;;;5053359;28;20378;-85
2023/06/18 14:36:55;;;;;;;4.25;3.95;;;;;;;;;;5053034;28;20408;-85
2023/06/18 14:39:21;;;;;;;4.43;4.13;;;;;;;;;;5053139;28;20382;-84
2023/06/18 14:41:47;;;;;;;4.63;3.90;;;;;;;;;;5053242;28;20381;-84